Time;durP1;ratioP1;P1;durP2;ratioP2;P2;SDS_P1;SDS_P2;PMS_P1;PMS_P2;Temp;Humidity;BMP_temperature;BMP_pressure;BME280_temperature;BME280_humidity;BME280_pressure;Samples;Min_cycle;Max_cycle;Signal;HPM_P1;HPM_P2
2024/01/27 00:02:10;;;;;;;28.67;5.07;;;4.40;91.80;;;;;;5094058;28;20332;-47
2024/01/27 00:04:37;;;;;;;22.52;4.57;;;4.30;91.90;;;;;;5094317;28;20550;-49
2024/01/27 00:07:06;;;;;;;31.45;4.93;;;4.30;91.90;;;;;;5094328;28;20046;-46
2024/01/27 00:09:33;;;;;;;20.87;5.63;;;4.40;92.10;;;;;;5094456;28;20039;-48
2024/01/27 00:12:00;;;;;;;16.95;4.85;;;4.30;92.00;;;;;;5094088;28;20070;-46
2024/01/27 00:14:27;;;;;;;17.40;4.20;;;4.40;92.10;;;;;;5094198;28;20644;-47
2024/01/27 00:16:54;;;;;;;24.88;4.97;;;4.40;92.00;;;;;;5093927;28;20122;-48
2024/01/27 00:19:21;;;;;;;30.08;5.85;;;4.40;92.10;;;;;;5076386;28;20036;-46
2024/01/27 00:21:47;;;;;;;22.48;5.55;;;4.40;92.00;;;;;;5094041;28;20097;-48
2024/01/27 00:24:14;;;;;;;23.23;3.90;;;4.40;92.00;;;;;;5093579;28;20115;-48
2024/01/27 00:26:41;;;;;;;29.38;6.80;;;4.40;92.10;;;;;;5093090;28;20553;-45
2024/01/27 00:29:08;;;;;;;22.95;6.45;;;4.40;92.10;;;;;;5093854;28;20028;-48
2024/01/27 00:31:34;;;;;;;29.88;4.75;;;4.40;92.20;;;;;;5093418;28;20032;-46
2024/01/27 00:34:00;;;;;;;27.00;5.35;;;4.40;92.10;;;;;;5093853;28;20049;-45
2024/01/27 00:36:27;;;;;;;30.80;6.03;;;4.40;92.20;;;;;;5093372;28;20364;-45
2024/01/27 00:38:53;;;;;;;29.33;4.45;;;4.40;92.20;;;;;;5094018;28;20050;-46
2024/01/27 00:41:20;;;;;;;28.38;4.85;;;4.40;92.10;;;;;;5093451;28;20154;-45
2024/01/27 00:43:46;;;;;;;26.13;5.88;;;4.40;92.00;;;;;;5093715;28;20508;-47
2024/01/27 00:46:13;;;;;;;28.83;5.15;;;4.40;92.10;;;;;;5093615;28;20369;-46
2024/01/27 00:48:40;;;;;;;29.17;6.47;;;4.30;92.10;;;;;;5093066;28;20131;-50
2024/01/27 00:51:06;;;;;;;26.63;4.35;;;4.30;92.10;;;;;;5093466;28;20027;-46
2024/01/27 00:53:32;;;;;;;24.77;6.60;;;4.30;92.10;;;;;;5092959;28;20344;-46
2024/01/27 00:56:03;;;;;;;17.70;4.05;;;4.30;92.10;;;;;;5093860;28;20039;-45
2024/01/27 00:58:31;;;;;;;24.35;6.13;;;4.30;92.20;;;;;;5092984;28;20155;-49
2024/01/27 01:00:58;;;;;;;22.98;6.18;;;4.30;92.10;;;;;;5075695;28;20032;-45
2024/01/27 01:03:25;;;;;;;23.98;4.80;;;4.30;92.20;;;;;;5092773;28;20028;-46
2024/01/27 01:05:52;;;;;;;19.15;4.63;;;4.20;92.30;;;;;;5075649;28;20024;-48
2024/01/27 01:08:19;;;;;;;18.52;4.85;;;4.30;92.20;;;;;;5093619;28;20123;-46
2024/01/27 01:10:46;;;;;;;26.30;5.13;;;4.20;92.20;;;;;;5093518;28;20028;-46
2024/01/27 01:13:15;;;;;;;24.38;5.30;;;4.30;92.20;;;;;;5092859;28;20099;-45
2024/01/27 01:15:42;;;;;;;25.33;4.40;;;4.20;92.30;;;;;;5093388;28;20030;-46
2024/01/27 01:18:09;;;;;;;23.95;5.65;;;4.20;92.30;;;;;;5092913;28;20094;-46
2024/01/27 01:20:35;;;;;;;29.92;4.85;;;4.20;92.40;;;;;;5074427;28;20391;-48
2024/01/27 01:23:02;;;;;;;39.58;6.57;;;4.20;92.50;;;;;;5092847;28;20048;-46
2024/01/27 01:25:30;;;;;;;21.00;5.22;;;4.20;92.50;;;;;;5092264;28;20488;-47
2024/01/27 01:27:57;;;;;;;20.13;4.38;;;4.20;92.60;;;;;;5092855;28;20028;-45
2024/01/27 01:30:24;;;;;;;29.52;5.85;;;4.20;92.80;;;;;;5092475;28;20449;-45
2024/01/27 01:32:51;;;;;;;28.98;5.78;;;4.20;92.90;;;;;;5093200;28;20070;-45
2024/01/27 01:35:20;;;;;;;35.63;6.93;;;4.20;92.90;;;;;;5093152;28;20020;-48
2024/01/27 01:37:48;;;;;;;28.07;5.77;;;4.20;93.10;;;;;;5093010;28;20024;-45
2024/01/27 01:40:15;;;;;;;45.63;8.80;;;4.20;93.10;;;;;;5092149;28;20143;-46
2024/01/27 01:42:41;;;;;;;35.05;9.23;;;4.20;93.20;;;;;;5092770;28;20095;-45
2024/01/27 01:45:10;;;;;;;31.02;6.13;;;4.20;93.30;;;;;;5092845;28;20028;-45
2024/01/27 01:47:36;;;;;;;31.13;5.53;;;4.20;93.20;;;;;;5092363;28;20471;-48
2024/01/27 01:50:04;;;;;;;31.23;6.43;;;4.20;93.40;;;;;;5092034;28;20028;-45
2024/01/27 01:52:34;;;;;;;25.98;5.93;;;4.20;93.40;;;;;;5092307;28;20054;-46
2024/01/27 01:55:09;;;;;;;33.38;7.35;;;4.20;93.30;;;;;;5091819;28;20031;-46
2024/01/27 01:57:36;;;;;;;31.02;6.45;;;4.20;93.30;;;;;;5080215;28;20036;-46
2024/01/27 02:00:03;;;;;;;28.67;5.57;;;4.20;93.30;;;;;;5083322;28;20066;-45
2024/01/27 02:02:30;;;;;;;34.33;5.00;;;4.20;93.40;;;;;;5091843;28;20405;-45
2024/01/27 02:04:58;;;;;;;34.67;6.40;;;4.20;93.40;;;;;;5091973;28;20119;-47
2024/01/27 02:07:25;;;;;;;26.40;5.45;;;4.20;93.50;;;;;;5074423;28;20042;-45
2024/01/27 02:09:57;;;;;;;29.83;7.40;;;4.20;93.60;;;;;;5092573;28;20020;-48
2024/01/27 02:12:25;;;;;;;25.08;5.53;;;4.20;93.50;;;;;;5091828;28;20310;-48
2024/01/27 02:14:52;;;;;;;37.30;8.98;;;4.20;93.50;;;;;;5092423;28;20036;-46
2024/01/27 02:17:18;;;;;;;34.47;7.22;;;4.20;93.40;;;;;;5092543;28;20032;-45
2024/01/27 02:19:45;;;;;;;31.58;8.73;;;4.10;93.40;;;;;;5091456;28;20036;-46
2024/01/27 02:22:12;;;;;;;26.05;5.80;;;4.10;93.40;;;;;;5072398;28;20422;-45
2024/01/27 02:24:39;;;;;;;23.88;5.18;;;4.10;93.40;;;;;;5085631;28;20062;-46
2024/01/27 02:27:06;;;;;;;32.95;6.57;;;4.10;93.40;;;;;;5091775;28;20020;-45
2024/01/27 02:29:33;;;;;;;26.05;5.32;;;4.10;93.50;;;;;;5091331;28;20091;-48
2024/01/27 02:32:02;;;;;;;27.10;5.13;;;4.20;93.70;;;;;;5090874;28;20020;-46
2024/01/27 02:34:29;;;;;;;44.53;6.53;;;4.20;93.70;;;;;;5079739;28;20024;-43
2024/01/27 02:36:56;;;;;;;31.08;6.35;;;4.20;93.70;;;;;;5082398;28;20643;-46
2024/01/27 02:39:23;;;;;;;33.85;6.30;;;4.20;93.70;;;;;;5080848;28;20031;-45
2024/01/27 02:41:49;;;;;;;30.98;5.80;;;4.20;93.70;;;;;;5081913;28;20441;-47
2024/01/27 02:44:17;;;;;;;25.73;7.15;;;4.10;93.60;;;;;;5081669;28;20028;-46
2024/01/27 02:46:44;;;;;;;34.97;6.53;;;4.10;93.70;;;;;;5081938;28;20052;-44
2024/01/27 02:49:11;;;;;;;30.30;5.95;;;4.20;93.70;;;;;;5082512;28;20155;-44
2024/01/27 02:51:39;;;;;;;25.67;6.70;;;4.10;93.60;;;;;;5077724;28;20021;-44
2024/01/27 02:54:08;;;;;;;28.17;5.50;;;4.10;93.70;;;;;;5093829;28;20425;-46
2024/01/27 02:56:35;;;;;;;26.15;6.15;;;4.00;93.70;;;;;;5082413;28;20028;-44
2024/01/27 02:59:02;;;;;;;27.00;6.65;;;4.00;93.60;;;;;;5072974;28;20032;-45
2024/01/27 03:01:29;;;;;;;29.33;6.00;;;4.00;93.60;;;;;;5090722;28;20024;-45
2024/01/27 03:03:55;;;;;;;33.40;7.10;;;4.00;93.70;;;;;;5091905;28;20020;-44
2024/01/27 03:06:26;;;;;;;26.35;4.82;;;3.90;93.60;;;;;;5090889;28;20349;-44
2024/01/27 03:08:53;;;;;;;27.90;5.60;;;3.90;93.60;;;;;;5073360;28;20431;-45
2024/01/27 03:11:20;;;;;;;31.20;6.70;;;3.90;93.70;;;;;;5073444;28;20072;-45
2024/01/27 03:13:48;;;;;;;29.73;5.50;;;3.90;93.70;;;;;;5091101;28;20036;-43
2024/01/27 03:16:17;;;;;;;18.80;4.70;;;3.90;93.70;;;;;;5091546;28;20099;-46
2024/01/27 03:18:47;;;;;;;29.90;5.93;;;3.90;93.80;;;;;;5091560;28;20020;-44
2024/01/27 03:21:12;;;;;;;29.92;5.78;;;3.90;93.80;;;;;;5090907;28;20040;-44
2024/01/27 03:23:38;;;;;;;25.70;4.00;;;3.90;93.70;;;;;;5091463;28;20039;-43
2024/01/27 03:26:05;;;;;;;27.52;6.05;;;3.90;93.70;;;;;;5091552;28;20020;-44
2024/01/27 03:28:32;;;;;;;22.08;4.55;;;3.90;93.70;;;;;;5072914;28;20031;-43
2024/01/27 03:30:59;;;;;;;31.05;5.35;;;3.90;93.70;;;;;;5091088;28;20153;-44
2024/01/27 03:33:26;;;;;;;19.65;5.20;;;3.80;93.60;;;;;;5091316;28;20032;-44
2024/01/27 03:35:53;;;;;;;19.23;4.90;;;3.80;93.60;;;;;;5090661;28;20017;-45
2024/01/27 03:38:20;;;;;;;23.30;4.88;;;3.80;93.60;;;;;;5103135;28;20701;-43
2024/01/27 03:40:47;;;;;;;27.63;4.85;;;3.70;93.70;;;;;;5089572;28;20025;-44
2024/01/27 03:43:12;;;;;;;27.27;4.25;;;3.80;93.80;;;;;;5090788;28;20509;-44
2024/01/27 03:45:39;;;;;;;25.80;6.18;;;3.70;93.70;;;;;;5091382;28;20032;-46
2024/01/27 03:48:06;;;;;;;35.03;5.07;;;3.70;93.70;;;;;;5090691;28;20039;-44
2024/01/27 03:50:32;;;;;;;18.98;4.70;;;3.70;93.70;;;;;;5094431;28;20028;-43
2024/01/27 03:52:58;;;;;;;25.52;4.85;;;3.70;93.80;;;;;;5095012;28;20089;-44
2024/01/27 03:55:25;;;;;;;23.95;7.40;;;3.70;93.70;;;;;;5094418;28;20032;-44
2024/01/27 03:57:52;;;;;;;19.35;4.78;;;3.70;93.70;;;;;;5077085;28;20027;-44
2024/01/27 04:00:19;;;;;;;28.40;4.80;;;3.60;93.50;;;;;;5094696;28;20024;-44
2024/01/27 04:02:46;;;;;;;32.35;5.20;;;3.60;93.50;;;;;;5094144;28;20111;-45
2024/01/27 04:05:13;;;;;;;23.65;3.97;;;3.50;93.40;;;;;;5094610;28;20060;-45
2024/01/27 04:07:45;;;;;;;21.95;5.00;;;3.50;93.40;;;;;;5094064;28;20024;-44
2024/01/27 04:10:12;;;;;;;29.92;5.38;;;3.50;93.40;;;;;;5094483;28;20013;-45
2024/01/27 04:12:39;;;;;;;17.13;4.05;;;3.50;93.50;;;;;;5094579;28;20024;-46
2024/01/27 04:15:06;;;;;;;18.80;5.03;;;3.40;93.50;;;;;;5094553;28;20095;-45
2024/01/27 04:17:32;;;;;;;25.48;5.28;;;3.40;93.60;;;;;;5094189;28;20028;-46
2024/01/27 04:20:01;;;;;;;35.40;6.28;;;3.50;93.60;;;;;;5094449;28;20081;-47
2024/01/27 04:22:31;;;;;;;26.85;5.10;;;3.50;93.70;;;;;;5094255;28;20135;-46
2024/01/27 04:24:57;;;;;;;22.13;4.35;;;3.50;93.70;;;;;;5093874;28;20055;-44
2024/01/27 04:27:26;;;;;;;25.50;4.53;;;3.50;93.70;;;;;;5094195;28;20081;-45
2024/01/27 04:29:53;;;;;;;25.42;5.55;;;3.50;93.70;;;;;;5093586;28;20040;-43
2024/01/27 04:32:21;;;;;;;29.88;4.10;;;3.50;93.50;;;;;;5094380;28;20056;-46
2024/01/27 04:34:50;;;;;;;20.60;4.80;;;3.50;93.60;;;;;;5076385;28;20020;-47
2024/01/27 04:37:17;;;;;;;26.65;5.38;;;3.50;93.60;;;;;;5093492;28;20336;-45
2024/01/27 04:39:45;;;;;;;27.48;4.75;;;3.40;93.50;;;;;;5094060;28;20039;-43
2024/01/27 04:42:14;;;;;;;31.98;4.60;;;3.40;93.50;;;;;;5093918;28;20043;-45
2024/01/27 04:44:41;;;;;;;21.33;3.65;;;3.40;93.50;;;;;;5093767;28;20322;-43
2024/01/27 04:47:08;;;;;;;22.90;4.93;;;3.40;93.50;;;;;;5094096;28;20047;-45
2024/01/27 04:49:35;;;;;;;20.80;7.03;;;3.40;93.40;;;;;;5093443;28;20027;-46
2024/01/27 04:52:01;;;;;;;38.30;10.82;;;3.40;93.40;;;;;;5093824;28;20513;-45
2024/01/27 04:54:30;;;;;;;33.08;10.65;;;3.40;93.50;;;;;;5093616;28;20024;-45
2024/01/27 04:56:59;;;;;;;24.77;7.10;;;3.40;93.50;;;;;;5072754;28;20039;-44
2024/01/27 04:59:26;;;;;;;29.08;6.57;;;3.40;93.50;;;;;;5079528;28;20274;-43
2024/01/27 05:01:51;;;;;;;27.20;5.13;;;3.40;93.40;;;;;;5092798;28;20039;-43
2024/01/27 05:04:18;;;;;;;28.73;8.02;;;3.30;93.30;;;;;;5093345;28;20020;-46
2024/01/27 05:06:45;;;;;;;25.38;5.50;;;3.30;93.40;;;;;;5093115;28;20474;-43
2024/01/27 05:09:12;;;;;;;24.52;5.22;;;3.40;93.40;;;;;;5075390;28;20026;-45
2024/01/27 05:11:39;;;;;;;24.73;6.32;;;3.40;93.40;;;;;;5092677;28;20032;-47
2024/01/27 05:14:09;;;;;;;23.00;4.50;;;3.40;93.40;;;;;;5075170;28;20020;-46
2024/01/27 05:16:37;;;;;;;15.95;4.45;;;3.40;93.50;;;;;;5092787;28;20051;-45
2024/01/27 05:19:03;;;;;;;21.63;4.15;;;3.40;93.40;;;;;;5093181;28;20020;-45
2024/01/27 05:21:30;;;;;;;24.00;4.80;;;3.30;93.40;;;;;;5092940;28;20073;-49
2024/01/27 05:23:58;;;;;;;19.13;4.55;;;3.30;93.30;;;;;;5093325;28;20052;-45
2024/01/27 05:26:25;;;;;;;27.20;4.00;;;3.30;93.20;;;;;;5092820;28;20020;-46
2024/01/27 05:28:52;;;;;;;29.42;6.25;;;3.30;93.30;;;;;;5093016;28;20587;-44
2024/01/27 05:31:19;;;;;;;31.70;9.13;;;3.30;93.30;;;;;;5092359;28;20043;-46
2024/01/27 05:33:46;;;;;;;34.10;9.18;;;3.30;93.20;;;;;;5093132;28;20457;-44
2024/01/27 05:36:12;;;;;;;25.65;6.82;;;3.20;93.00;;;;;;5092903;28;20075;-46
2024/01/27 05:38:39;;;;;;;26.58;6.43;;;3.10;93.20;;;;;;5093039;28;20059;-45
2024/01/27 05:41:04;;;;;;;23.63;8.23;;;3.20;93.20;;;;;;5092490;28;20035;-44
2024/01/27 05:43:31;;;;;;;34.03;6.47;;;3.20;93.30;;;;;;5074830;28;20019;-44
2024/01/27 05:45:58;;;;;;;26.63;5.38;;;3.20;93.40;;;;;;5092660;28;20108;-44
2024/01/27 05:48:25;;;;;;;29.83;5.07;;;3.20;93.30;;;;;;5092352;28;20469;-44
2024/01/27 05:51:09;;;;;;;20.30;4.35;;;3.20;93.30;;;;;;5092632;28;20028;-46
2024/01/27 05:53:39;;;;;;;18.27;4.20;;;3.20;93.40;;;;;;5092074;28;20293;-44
2024/01/27 05:56:06;;;;;;;20.58;3.60;;;3.20;93.40;;;;;;5092589;28;20024;-44
2024/01/27 05:58:33;;;;;;;22.15;4.38;;;3.20;93.40;;;;;;5092599;28;20108;-44
2024/01/27 06:00:59;;;;;;;23.45;5.25;;;3.20;93.30;;;;;;5091961;28;20039;-44
2024/01/27 06:03:26;;;;;;;19.70;3.47;;;3.20;93.30;;;;;;5091925;28;20035;-44
2024/01/27 06:05:53;;;;;;;11.45;3.30;;;3.20;93.30;;;;;;5074304;28;20032;-44
2024/01/27 06:08:20;;;;;;;18.73;4.97;;;3.20;93.30;;;;;;5074547;28;20056;-44
2024/01/27 06:10:47;;;;;;;26.13;5.80;;;3.20;93.30;;;;;;5091842;28;20032;-44
2024/01/27 06:13:14;;;;;;;19.92;4.25;;;3.20;93.30;;;;;;5092303;28;20073;-44
2024/01/27 06:15:41;;;;;;;16.98;4.05;;;3.20;93.40;;;;;;5092312;28;20474;-45
2024/01/27 06:18:08;;;;;;;21.40;3.90;;;3.20;93.40;;;;;;5091734;28;20031;-48
2024/01/27 06:20:35;;;;;;;14.68;3.30;;;3.20;93.40;;;;;;5074116;28;20032;-44
2024/01/27 06:23:03;;;;;;;19.83;5.50;;;3.20;93.40;;;;;;5091684;28;20063;-44
2024/01/27 06:25:30;;;;;;;25.20;4.00;;;3.20;93.30;;;;;;5091712;28;20036;-44
2024/01/27 06:27:57;;;;;;;26.20;4.65;;;3.20;93.30;;;;;;5091035;28;20108;-44
2024/01/27 06:30:24;;;;;;;22.10;5.95;;;3.20;93.30;;;;;;5091504;28;20091;-45
2024/01/27 06:32:50;;;;;;;27.30;8.60;;;3.20;93.20;;;;;;5090885;28;20103;-44
2024/01/27 06:35:17;;;;;;;25.70;8.15;;;3.20;93.20;;;;;;5091760;28;20107;-46
2024/01/27 06:37:43;;;;;;;23.05;6.40;;;3.10;93.20;;;;;;5091520;28;20032;-44
2024/01/27 06:40:10;;;;;;;22.42;5.97;;;3.20;93.30;;;;;;5091030;28;20074;-44
2024/01/27 06:42:37;;;;;;;19.27;4.72;;;3.20;93.20;;;;;;5091914;28;20024;-46
2024/01/27 06:45:03;;;;;;;16.25;3.83;;;3.20;93.20;;;;;;5091733;28;20439;-45
2024/01/27 06:47:31;;;;;;;23.00;4.65;;;3.10;93.10;;;;;;5091249;28;20062;-46
2024/01/27 06:49:58;;;;;;;20.27;4.25;;;3.10;93.20;;;;;;5091621;28;20016;-45
2024/01/27 06:52:25;;;;;;;20.48;4.30;;;3.10;93.10;;;;;;5091971;28;20036;-45
2024/01/27 06:54:54;;;;;;;21.55;4.90;;;3.10;93.10;;;;;;5091290;28;20394;-50
2024/01/27 06:57:40;;;;;;;21.05;4.63;;;3.00;93.10;;;;;;5090894;28;20032;-45
2024/01/27 07:00:08;;;;;;;15.07;4.15;;;3.00;93.10;;;;;;5090238;28;20032;-44
2024/01/27 07:02:38;;;;;;;17.70;4.50;;;3.00;93.20;;;;;;5087281;28;20117;-45
2024/01/27 07:05:08;;;;;;;15.82;4.35;;;3.10;93.20;;;;;;5089375;28;20036;-45
2024/01/27 07:07:35;;;;;;;;;;;3.00;93.10;;;;;;5078613;28;20119;-47
2024/01/27 07:10:02;;;;;;;24.20;5.97;;;3.10;93.20;;;;;;5086373;28;19912;-45
2024/01/27 07:12:32;;;;;;;24.70;3.85;;;3.10;93.20;;;;;;5088883;28;20023;-45
2024/01/27 07:14:59;;;;;;;19.33;4.00;;;3.10;93.20;;;;;;5089721;28;20032;-48
2024/01/27 07:17:27;;;;;;;21.20;3.80;;;3.10;93.30;;;;;;5078926;28;20055;-45
2024/01/27 07:19:54;;;;;;;15.30;4.20;;;3.10;93.20;;;;;;5089711;28;20077;-45
2024/01/27 07:22:20;;;;;;;13.90;4.50;;;3.20;93.30;;;;;;5089645;28;20047;-44
2024/01/27 07:24:46;;;;;;;16.65;3.38;;;3.20;93.20;;;;;;5091369;28;20030;-46
2024/01/27 07:27:16;;;;;;;24.42;4.80;;;3.10;93.20;;;;;;5091209;28;20038;-45
2024/01/27 07:29:43;;;;;;;16.35;4.57;;;3.10;93.10;;;;;;5086222;28;20028;-44
2024/01/27 07:32:13;;;;;;;25.20;4.45;;;3.10;93.10;;;;;;5094351;28;20028;-47
2024/01/27 07:34:45;;;;;;;24.70;4.55;;;3.10;93.10;;;;;;5095010;28;20726;-47
2024/01/27 07:37:16;;;;;;;15.55;4.65;;;3.20;93.10;;;;;;5084296;28;20433;-45
2024/01/27 07:39:42;;;;;;;26.25;5.88;;;3.10;93.00;;;;;;5090977;28;20033;-45
2024/01/27 07:42:12;;;;;;;13.32;3.40;;;3.10;93.00;;;;;;5094790;28;20046;-48
2024/01/27 07:44:39;;;;;;;21.35;5.65;;;3.20;93.10;;;;;;5086930;28;20031;-48
2024/01/27 07:47:06;;;;;;;18.13;3.95;;;3.20;93.10;;;;;;5094150;28;20063;-45
2024/01/27 07:49:33;;;;;;;16.08;3.55;;;3.20;93.10;;;;;;5093176;28;20494;-48
2024/01/27 07:52:00;;;;;;;22.02;4.70;;;3.20;93.10;;;;;;5090697;28;20459;-47
2024/01/27 07:54:29;;;;;;;20.08;3.83;;;3.20;93.10;;;;;;5094290;28;20036;-47
2024/01/27 07:56:55;;;;;;;20.95;4.25;;;3.30;93.20;;;;;;5065889;28;20032;-45
2024/01/27 07:59:25;;;;;;;16.77;3.25;;;3.30;93.10;;;;;;5082485;28;20028;-48
2024/01/27 08:01:50;;;;;;;16.98;4.95;;;3.30;93.10;;;;;;5088781;28;20020;-46
2024/01/27 08:04:16;;;;;;;20.05;4.13;;;3.40;93.20;;;;;;5094370;28;20158;-47
2024/01/27 08:06:53;;;;;;;15.52;4.72;;;3.40;93.10;;;;;;5094611;28;20089;-45
2024/01/27 08:09:20;;;;;;;19.98;4.03;;;3.40;92.90;;;;;;5094346;28;20376;-46
2024/01/27 08:11:51;;;;;;;13.52;2.90;;;3.40;92.90;;;;;;5093976;28;20016;-46
2024/01/27 08:14:18;;;;;;;23.40;4.30;;;3.40;92.90;;;;;;5094564;28;20103;-46
2024/01/27 08:16:45;;;;;;;16.92;3.33;;;3.40;92.90;;;;;;5094750;28;20112;-45
2024/01/27 08:19:12;;;;;;;17.27;4.13;;;3.40;92.90;;;;;;5090673;28;20040;-50
2024/01/27 08:21:39;;;;;;;14.93;3.55;;;3.40;92.90;;;;;;5084273;28;20048;-46
2024/01/27 08:24:05;;;;;;;19.23;4.50;;;3.50;92.80;;;;;;5086729;28;20081;-47
2024/01/27 08:26:32;;;;;;;16.50;3.95;;;3.40;92.80;;;;;;5087031;28;20086;-46
2024/01/27 08:28:58;;;;;;;12.43;4.03;;;3.40;92.70;;;;;;5063201;28;20056;-44
2024/01/27 08:31:25;;;;;;;11.73;3.03;;;3.50;92.80;;;;;;5085265;28;20946;-46
2024/01/27 08:33:52;;;;;;;17.20;4.40;;;3.50;92.80;;;;;;5084707;28;20349;-45
2024/01/27 08:36:18;;;;;;;18.42;3.33;;;3.50;92.80;;;;;;5090339;28;20031;-46
2024/01/27 08:38:45;;;;;;;25.17;4.45;;;3.60;92.90;;;;;;5064321;28;20028;-44
2024/01/27 08:41:12;;;;;;;20.17;5.03;;;3.60;92.80;;;;;;5093448;28;20340;-45
2024/01/27 08:43:39;;;;;;;16.55;4.95;;;3.70;92.80;;;;;;5065528;28;20032;-44
2024/01/27 08:46:11;;;;;;;11.90;3.70;;;3.70;92.80;;;;;;5088156;28;20028;-45
2024/01/27 08:48:40;;;;;;;17.23;3.33;;;3.70;92.70;;;;;;5086617;28;20024;-46
2024/01/27 08:51:10;;;;;;;20.88;3.70;;;3.80;92.70;;;;;;5064970;28;20020;-48
2024/01/27 08:53:36;;;;;;;19.98;4.32;;;3.90;92.70;;;;;;5081851;28;20011;-45
2024/01/27 08:56:03;;;;;;;15.23;4.10;;;3.90;92.60;;;;;;5085483;28;20032;-50
2024/01/27 08:58:31;;;;;;;17.55;3.47;;;3.90;92.70;;;;;;5083537;28;20020;-45
2024/01/27 09:01:01;;;;;;;17.60;4.95;;;4.10;92.70;;;;;;5082661;28;20028;-48
2024/01/27 09:03:31;;;;;;;20.83;6.35;;;4.20;92.60;;;;;;5084735;28;20032;-45
2024/01/27 09:05:57;;;;;;;11.50;4.45;;;4.20;92.50;;;;;;5086342;28;20366;-45
2024/01/27 09:08:24;;;;;;;19.52;5.25;;;4.20;92.30;;;;;;5085750;28;20122;-46
2024/01/27 09:10:51;;;;;;;15.65;4.20;;;4.20;92.20;;;;;;5081890;28;20016;-44
2024/01/27 09:13:16;;;;;;;27.15;4.78;;;4.40;92.30;;;;;;5083938;28;20427;-45
2024/01/27 09:15:45;;;;;;;14.73;3.97;;;4.40;92.10;;;;;;5084591;28;20076;-48
2024/01/27 09:18:12;;;;;;;12.18;3.88;;;4.50;92.20;;;;;;5083954;28;20032;-45
2024/01/27 09:20:39;;;;;;;14.27;3.58;;;4.60;92.00;;;;;;5082473;28;20095;-45
2024/01/27 09:23:06;;;;;;;18.42;4.45;;;4.70;92.00;;;;;;5065390;28;20044;-44
2024/01/27 09:25:33;;;;;;;10.90;4.10;;;4.90;92.00;;;;;;5081632;28;20390;-48
2024/01/27 09:28:03;;;;;;;14.95;4.32;;;5.00;91.70;;;;;;5066924;28;20032;-45
2024/01/27 09:30:30;;;;;;;20.52;5.00;;;5.10;91.60;;;;;;5080695;28;20342;-44
2024/01/27 09:32:59;;;;;;;16.73;3.88;;;5.30;91.30;;;;;;5061940;28;20066;-47
2024/01/27 09:35:25;;;;;;;;;;;5.40;91.50;;;;;;5058813;28;20024;-47
2024/01/27 09:37:51;;;;;;;13.38;3.30;;;5.50;90.50;;;;;;5092375;28;20170;-47
2024/01/27 09:40:18;;;;;;;17.92;3.92;;;5.70;90.60;;;;;;5092412;28;20024;-45
2024/01/27 09:42:54;;;;;;;19.02;3.50;;;5.80;90.30;;;;;;5085106;28;20042;-44
2024/01/27 09:45:24;;;;;;;33.83;5.03;;;5.90;89.50;;;;;;5086853;28;20028;-45
2024/01/27 09:47:51;;;;;;;14.77;3.55;;;5.90;89.40;;;;;;5088024;28;20020;-45
2024/01/27 09:50:18;;;;;;;20.98;4.20;;;6.00;89.50;;;;;;5092510;28;20031;-48
2024/01/27 09:52:44;;;;;;;16.10;3.90;;;6.00;88.90;;;;;;5091843;28;20047;-48
2024/01/27 09:55:10;;;;;;;22.52;6.85;;;6.10;88.80;;;;;;5092876;28;20032;-48
2024/01/27 09:57:40;;;;;;;13.85;4.75;;;6.20;88.70;;;;;;5092127;28;20606;-50
2024/01/27 10:00:10;;;;;;;13.05;3.25;;;6.30;88.30;;;;;;5054671;28;20090;-45
2024/01/27 10:02:41;;;;;;;13.95;3.88;;;6.20;88.40;;;;;;5086466;28;20424;-45
2024/01/27 10:05:12;;;;;;;17.73;4.47;;;6.30;88.20;;;;;;5091870;28;20035;-46
2024/01/27 10:12:47;;;;;;;14.20;4.18;;;6.40;87.70;;;;;;4970465;28;20097;-48
2024/01/27 10:15:22;;;;;;;;;;;6.50;88.00;;;;;;4955517;28;20051;-48
2024/01/27 10:17:49;;;;;;;14.60;4.68;;;6.50;87.60;;;;;;4953003;28;19921;-47
2024/01/27 10:20:18;;;;;;;13.40;3.28;;;6.60;87.50;;;;;;4954576;28;20066;-48
2024/01/27 10:22:45;;;;;;;18.85;3.70;;;6.60;87.20;;;;;;4968480;28;20023;-46
2024/01/27 10:25:12;;;;;;;16.85;4.13;;;6.60;87.20;;;;;;4951971;28;20037;-46
2024/01/27 10:27:42;;;;;;;16.20;3.97;;;6.60;87.50;;;;;;4964375;28;20571;-46
2024/01/27 10:30:17;;;;;;;24.45;5.13;;;6.60;87.60;;;;;;4969833;28;20499;-47
2024/01/27 10:32:44;;;;;;;18.45;4.47;;;6.60;87.30;;;;;;4950122;29;20061;-45
2024/01/27 10:35:11;;;;;;;20.35;4.47;;;6.60;87.50;;;;;;4950453;29;20090;-44
2024/01/27 10:37:38;;;;;;;17.90;4.97;;;6.60;87.80;;;;;;4966985;28;20058;-48
2024/01/27 10:40:09;;;;;;;16.83;3.92;;;6.70;87.80;;;;;;4972392;28;20343;-45
2024/01/27 10:42:42;;;;;;;19.98;4.20;;;6.70;87.70;;;;;;4972128;28;20037;-46
2024/01/27 10:45:11;;;;;;;18.70;3.95;;;6.80;87.90;;;;;;4972302;28;20109;-46
2024/01/27 10:47:38;;;;;;;17.95;4.78;;;6.70;87.80;;;;;;4948909;28;20121;-46
2024/01/27 10:50:09;;;;;;;19.20;4.57;;;6.70;87.70;;;;;;4971883;28;20388;-46
2024/01/27 10:52:41;;;;;;;21.63;5.15;;;6.80;87.80;;;;;;4972737;28;20158;-46
2024/01/27 10:55:09;;;;;;;18.40;5.85;;;6.80;87.60;;;;;;4955187;28;20026;-46
2024/01/27 10:57:49;;;;;;;17.60;5.03;;;6.90;87.70;;;;;;4971919;28;20064;-47
2024/01/27 11:00:19;;;;;;;;;;;6.80;87.50;;;;;;4972210;28;20031;-47
2024/01/27 11:02:52;;;;;;;21.55;6.18;;;6.70;87.50;;;;;;4972624;28;19910;-50
2024/01/27 11:05:19;;;;;;;14.20;3.88;;;6.80;87.80;;;;;;4970009;28;20178;-47
2024/01/27 11:07:47;;;;;;;27.20;5.57;;;6.90;87.80;;;;;;4970577;28;20052;-48
2024/01/27 11:10:12;;;;;;;15.18;5.05;;;7.00;88.20;;;;;;4972513;28;20038;-47
2024/01/27 11:12:41;;;;;;;20.42;4.78;;;6.90;87.90;;;;;;4991076;28;20105;-46
2024/01/27 11:15:12;;;;;;;22.85;7.03;;;6.90;87.80;;;;;;4992336;28;20034;-46
2024/01/27 11:17:40;;;;;;;15.95;4.57;;;6.90;87.70;;;;;;4992193;28;20418;-46
2024/01/27 11:20:11;;;;;;;17.83;4.43;;;6.90;87.90;;;;;;4991994;28;20423;-47
2024/01/27 11:22:39;;;;;;;19.35;4.35;;;6.90;88.00;;;;;;4992097;28;20093;-46
2024/01/27 11:25:26;;;;;;;19.77;4.22;;;6.90;88.20;;;;;;4981217;28;20039;-48
2024/01/27 11:27:52;;;;;;;21.17;5.97;;;7.10;88.50;;;;;;4991572;28;20431;-46
2024/01/27 11:30:37;;;;;;;18.13;5.68;;;7.20;88.40;;;;;;4991675;28;20569;-48
2024/01/27 11:33:04;;;;;;;23.58;7.78;;;7.20;88.30;;;;;;4991817;28;20022;-47
2024/01/27 11:35:34;;;;;;;16.83;4.75;;;7.20;88.00;;;;;;4992077;28;20030;-50
2024/01/27 11:38:04;;;;;;;;;;;7.30;87.70;;;;;;4990742;28;20344;-47
2024/01/27 11:40:32;;;;;;;15.13;3.65;;;7.30;88.00;;;;;;4991212;28;19919;-50
2024/01/27 11:43:01;;;;;;;23.30;5.85;;;7.30;87.90;;;;;;4990598;28;20037;-47
2024/01/27 11:45:32;;;;;;;23.05;6.25;;;7.30;87.80;;;;;;4991731;28;20039;-47
2024/01/27 11:48:00;;;;;;;17.13;3.80;;;7.40;87.90;;;;;;4991754;28;20427;-47
2024/01/27 11:50:28;;;;;;;18.17;4.18;;;7.30;87.80;;;;;;4973795;28;20058;-47
2024/01/27 11:52:56;;;;;;;15.40;4.47;;;7.40;87.90;;;;;;4991541;28;20026;-48
2024/01/27 11:55:24;;;;;;;21.08;4.75;;;7.40;88.10;;;;;;4973937;28;20137;-49
2024/01/27 11:57:52;;;;;;;17.08;5.13;;;7.50;87.60;;;;;;4974096;28;20037;-49
2024/01/27 12:00:23;;;;;;;11.95;4.25;;;7.50;87.70;;;;;;4990695;28;20034;-47
2024/01/27 12:02:53;;;;;;;17.17;5.35;;;7.60;88.10;;;;;;4991124;28;20035;-47
2024/01/27 12:05:20;;;;;;;18.20;4.28;;;7.70;87.50;;;;;;4974091;28;20092;-47
2024/01/27 12:07:50;;;;;;;17.63;4.78;;;7.70;87.30;;;;;;4989975;28;20027;-47
2024/01/27 12:10:20;;;;;;;19.70;5.25;;;7.70;86.90;;;;;;4988481;28;20058;-48
2024/01/27 12:12:46;;;;;;;18.25;4.03;;;7.70;86.90;;;;;;4974479;28;20086;-50
2024/01/27 12:15:12;;;;;;;14.48;4.65;;;7.70;86.80;;;;;;4974148;28;20034;-49
2024/01/27 12:17:39;;;;;;;22.88;6.82;;;7.80;86.80;;;;;;4954155;29;20023;-54
2024/01/27 12:20:17;;;;;;;15.13;4.70;;;7.80;86.80;;;;;;4956220;29;20031;-48
2024/01/27 12:22:43;;;;;;;20.60;4.82;;;7.80;86.80;;;;;;4964237;28;20035;-51
2024/01/27 12:25:13;;;;;;;18.02;4.38;;;7.80;86.90;;;;;;4974235;28;20022;-48
2024/01/27 12:27:40;;;;;;;16.92;3.90;;;7.80;86.70;;;;;;4975220;28;20577;-48
2024/01/27 12:30:08;;;;;;;15.10;4.32;;;7.80;86.90;;;;;;4974222;28;20040;-49
2024/01/27 12:32:37;;;;;;;22.90;3.80;;;7.90;87.00;;;;;;4973950;28;20107;-50
2024/01/27 12:35:08;;;;;;;17.30;3.95;;;7.80;86.80;;;;;;4974342;28;20129;-48
2024/01/27 12:37:35;;;;;;;14.18;4.90;;;7.80;86.80;;;;;;4974490;28;20041;-47
2024/01/27 12:40:04;;;;;;;11.18;4.20;;;7.70;86.70;;;;;;4974262;28;20090;-50
2024/01/27 12:42:31;;;;;;;14.00;4.70;;;7.70;86.70;;;;;;4974843;28;20022;-49
2024/01/27 12:44:58;;;;;;;13.85;4.13;;;7.80;86.90;;;;;;4974537;28;20105;-47
2024/01/27 12:47:23;;;;;;;14.38;4.30;;;7.90;86.80;;;;;;4969187;28;20071;-47
2024/01/27 12:49:52;;;;;;;16.80;3.83;;;7.90;86.60;;;;;;4974980;28;20486;-48
2024/01/27 12:52:21;;;;;;;15.77;5.78;;;7.90;86.40;;;;;;4975159;28;20027;-47
2024/01/27 12:54:50;;;;;;;14.90;3.90;;;7.90;86.60;;;;;;4974734;28;20065;-50
2024/01/27 12:57:18;;;;;;;15.32;4.47;;;8.10;86.80;;;;;;4971326;28;20333;-48